createdAt,value
2019-05-30T00:00:16.564Z,9.10
2019-05-30T00:03:00.292Z,9.10
2019-05-30T00:06:04.574Z,8.90
2019-05-30T00:09:08.046Z,8.80
2019-05-30T00:12:03.200Z,8.80
2019-05-30T00:15:00.720Z,8.80
2019-05-30T00:17:51.841Z,8.80
2019-05-30T00:21:02.832Z,8.70
2019-05-30T00:23:57.790Z,8.60
2019-05-30T00:26:51.548Z,8.70
2019-05-30T00:29:46.804Z,8.80
2019-05-30T00:32:57.638Z,8.90
2019-05-30T00:35:50.055Z,9.00
2019-05-30T00:38:46.682Z,9.00
2019-05-30T00:41:49.033Z,9.00
2019-05-30T00:44:44.043Z,9.00
2019-05-30T00:47:45.232Z,9.10
2019-05-30T00:50:42.375Z,9.00
2019-05-30T00:53:35.857Z,9.00
2019-05-30T00:56:39.637Z,9.10
2019-05-30T00:59:42.021Z,9.10
2019-05-30T01:02:32.593Z,9.00
2019-05-30T01:05:41.665Z,9.00
2019-05-30T01:08:53.026Z,9.00
2019-05-30T01:12:05.289Z,9.00
2019-05-30T01:18:01.061Z,9.10
2019-05-30T01:20:52.607Z,9.10
2019-05-30T01:23:43.946Z,9.10
2019-05-30T01:26:33.471Z,9.10
2019-05-30T01:29:22.934Z,9.10
2019-05-30T01:32:29.901Z,9.10
2019-05-30T01:35:20.309Z,9.00
2019-05-30T01:38:08.200Z,9.00
2019-05-30T01:40:56.204Z,9.00
2019-05-30T01:43:44.176Z,9.00
2019-05-30T01:46:32.279Z,9.00
2019-05-30T01:49:23.348Z,9.00
2019-05-30T01:52:12.068Z,9.00
2019-05-30T01:55:00.494Z,9.00
2019-05-30T01:57:48.465Z,9.00
2019-05-30T02:00:38.914Z,8.90
2019-05-30T02:03:26.729Z,9.00
2019-05-30T02:06:14.543Z,8.90
2019-05-30T02:09:03.235Z,8.80
2019-05-30T02:11:53.274Z,8.70
2019-05-30T02:14:40.848Z,8.60
2019-05-30T02:17:29.291Z,8.60
2019-05-30T02:20:17.613Z,8.60
2019-05-30T02:23:07.582Z,8.50
2019-05-30T02:25:54.831Z,8.60
2019-05-30T02:28:42.671Z,8.60
2019-05-30T02:31:38.948Z,8.60
2019-05-30T02:34:20.429Z,8.60
2019-05-30T02:37:10.765Z,8.60
2019-05-30T02:40:00.969Z,8.60
2019-05-30T02:42:48.378Z,8.50
2019-05-30T02:45:36.191Z,8.50
2019-05-30T02:48:24.766Z,8.50
2019-05-30T02:51:12.946Z,8.40
2019-05-30T02:54:01.569Z,8.40
2019-05-30T02:56:50.901Z,8.40
2019-05-30T02:59:41.107Z,8.30
2019-05-30T03:02:29.216Z,8.30
2019-05-30T03:05:17.549Z,8.20
2019-05-30T03:08:11.441Z,8.20
2019-05-30T03:10:58.637Z,8.10
2019-05-30T03:13:46.788Z,8.10
2019-05-30T03:16:35.323Z,7.90
2019-05-30T03:19:24.605Z,7.80
2019-05-30T03:22:14.014Z,7.80
2019-05-30T03:25:02.953Z,7.70
2019-05-30T03:27:51.880Z,7.60
2019-05-30T03:30:39.954Z,7.60
2019-05-30T03:33:39.661Z,7.50
2019-05-30T03:36:28.253Z,7.50
2019-05-30T03:39:10.873Z,7.40
2019-05-30T03:42:02.084Z,7.40
2019-05-30T03:44:52.248Z,7.40
2019-05-30T03:47:43.930Z,7.40
2019-05-30T03:50:36.157Z,7.40
2019-05-30T03:53:25.555Z,7.30
2019-05-30T03:56:17.022Z,7.30
2019-05-30T03:59:34.495Z,7.30
2019-05-30T04:02:55.229Z,7.20
2019-05-30T04:05:35.549Z,7.20
2019-05-30T04:08:24.681Z,7.10
2019-05-30T04:11:16.810Z,7.10
2019-05-30T04:14:06.938Z,7.00
2019-05-30T04:16:55.718Z,7.10
2019-05-30T04:19:43.697Z,7.10
2019-05-30T04:22:31.436Z,7.10
2019-05-30T04:25:19.720Z,7.10
2019-05-30T04:28:07.914Z,7.10
2019-05-30T04:30:56.112Z,7.20
2019-05-30T04:33:44.085Z,7.20
2019-05-30T04:36:31.839Z,7.30
2019-05-30T04:39:19.797Z,7.30
2019-05-30T04:42:09.280Z,7.50
2019-05-30T04:44:57.504Z,7.60
2019-05-30T04:47:45.516Z,7.80
2019-05-30T04:50:34.088Z,7.90
2019-05-30T04:53:21.946Z,8.10
2019-05-30T04:56:10.295Z,8.20
2019-05-30T04:58:58.143Z,8.30
2019-05-30T05:01:45.834Z,8.50
2019-05-30T05:04:33.422Z,8.60
2019-05-30T05:07:22.025Z,8.70
2019-05-30T05:10:10.072Z,8.70
2019-05-30T05:12:57.763Z,8.80
2019-05-30T05:15:45.435Z,8.90
2019-05-30T05:18:32.678Z,9.00
2019-05-30T05:21:21.028Z,9.10
2019-05-30T05:24:08.623Z,9.20
2019-05-30T05:26:56.366Z,9.30
2019-05-30T05:29:43.863Z,9.40
2019-05-30T05:32:31.416Z,9.40
2019-05-30T05:35:19.342Z,9.50
2019-05-30T05:38:06.950Z,9.50
2019-05-30T05:40:54.443Z,9.60
2019-05-30T05:43:41.898Z,9.60
2019-05-30T05:46:29.224Z,9.60
2019-05-30T05:49:16.409Z,9.70
2019-05-30T05:52:03.750Z,9.80
2019-05-30T05:54:51.279Z,10.00
2019-05-30T05:57:38.998Z,10.00
2019-05-30T06:00:26.775Z,10.10
2019-05-30T06:03:14.431Z,9.80
2019-05-30T06:06:01.876Z,9.70
2019-05-30T06:08:49.650Z,9.70
2019-05-30T06:11:37.683Z,9.90
2019-05-30T06:14:26.246Z,10.10
2019-05-30T06:17:14.669Z,10.30
2019-05-30T06:20:02.221Z,10.20
2019-05-30T06:22:50.170Z,10.30
2019-05-30T06:25:37.902Z,10.40
2019-05-30T06:28:26.372Z,10.60
2019-05-30T06:31:13.866Z,10.50
2019-05-30T06:34:02.005Z,10.60
2019-05-30T06:36:49.990Z,10.80
2019-05-30T06:39:38.248Z,10.80
2019-05-30T06:42:26.109Z,10.90
2019-05-30T06:45:14.402Z,11.00
2019-05-30T06:48:01.816Z,11.00
2019-05-30T06:50:49.466Z,11.30
2019-05-30T06:53:37.567Z,11.40
2019-05-30T06:56:25.650Z,11.30
2019-05-30T06:59:13.137Z,11.40
2019-05-30T07:02:00.867Z,11.60
2019-05-30T07:04:51.982Z,12.00
2019-05-30T07:07:37.978Z,12.30
2019-05-30T07:10:26.793Z,12.60
2019-05-30T07:13:14.568Z,12.40
2019-05-30T07:16:02.234Z,12.40
2019-05-30T07:18:49.979Z,12.40
2019-05-30T07:21:37.475Z,12.50
2019-05-30T07:24:25.730Z,12.50
2019-05-30T07:27:13.261Z,12.50
2019-05-30T07:30:01.590Z,12.30
2019-05-30T07:32:49.529Z,12.20
2019-05-30T07:35:37.117Z,12.30
2019-05-30T07:38:26.286Z,12.30
2019-05-30T07:41:14.382Z,11.80
2019-05-30T07:44:01.974Z,11.70
2019-05-30T07:46:49.802Z,12.00
2019-05-30T07:49:38.696Z,12.00
2019-05-30T07:52:26.599Z,12.40
2019-05-30T07:55:14.264Z,12.70
2019-05-30T07:58:02.093Z,13.00
2019-05-30T08:00:49.769Z,13.20
2019-05-30T08:03:38.765Z,13.30
2019-05-30T08:06:27.452Z,13.50
2019-05-30T08:09:15.179Z,13.80
2019-05-30T08:12:03.405Z,14.00
2019-05-30T08:14:51.433Z,14.10
2019-05-30T08:17:39.509Z,14.40
2019-05-30T08:20:27.620Z,14.40
2019-05-30T08:23:15.811Z,14.40
2019-05-30T08:26:04.105Z,14.40
2019-05-30T08:28:51.845Z,14.40
2019-05-30T08:31:39.772Z,14.30
2019-05-30T08:34:28.440Z,14.10
2019-05-30T08:37:16.515Z,13.90
2019-05-30T08:40:04.438Z,13.90
2019-05-30T08:42:52.117Z,13.90
2019-05-30T08:45:40.055Z,13.70
2019-05-30T08:48:27.921Z,14.00
2019-05-30T08:51:15.671Z,14.30
2019-05-30T08:54:04.117Z,14.40
2019-05-30T08:56:52.214Z,14.30
2019-05-30T08:59:40.735Z,14.10
2019-05-30T09:02:28.922Z,14.10
2019-05-30T09:05:17.136Z,13.80
2019-05-30T09:08:05.229Z,13.80
2019-05-30T09:10:52.928Z,13.70
2019-05-30T09:13:40.444Z,13.80
2019-05-30T09:16:27.989Z,14.00
2019-05-30T09:19:15.916Z,14.10
2019-05-30T09:22:03.775Z,14.00
2019-05-30T09:24:51.078Z,14.00
2019-05-30T09:27:39.377Z,14.10
2019-05-30T09:30:27.980Z,14.20
2019-05-30T09:33:15.504Z,14.20
2019-05-30T09:36:12.541Z,14.30
2019-05-30T09:38:52.709Z,14.30
2019-05-30T09:41:40.971Z,14.30
2019-05-30T09:44:30.620Z,14.10
2019-05-30T09:47:20.056Z,13.80
2019-05-30T09:50:09.147Z,14.10
2019-05-30T09:52:57.381Z,14.40
2019-05-30T09:55:51.653Z,14.70
2019-05-30T09:58:39.718Z,15.10
2019-05-30T10:01:33.570Z,15.50
2019-05-30T10:04:24.130Z,15.80
2019-05-30T10:07:12.674Z,16.00
2019-05-30T10:10:00.901Z,16.00
2019-05-30T10:12:52.694Z,16.00
2019-05-30T10:15:44.081Z,15.90
2019-05-30T10:18:33.451Z,15.90
2019-05-30T10:21:21.861Z,15.60
2019-05-30T10:24:10.202Z,15.30
2019-05-30T10:27:00.645Z,15.00
2019-05-30T10:29:49.441Z,14.80
2019-05-30T10:32:39.800Z,14.80
2019-05-30T10:35:29.901Z,14.50
2019-05-30T10:38:19.923Z,14.60
2019-05-30T10:41:07.049Z,14.70
2019-05-30T10:43:58.081Z,14.50
2019-05-30T10:46:48.630Z,14.40
2019-05-30T10:49:39.254Z,14.40
2019-05-30T10:52:28.622Z,14.40
2019-05-30T10:55:18.314Z,14.40
2019-05-30T10:58:08.961Z,14.50
2019-05-30T11:00:59.611Z,14.60
2019-05-30T11:03:48.745Z,14.30
2019-05-30T11:07:10.919Z,14.30
2019-05-30T11:10:03.278Z,14.20
2019-05-30T11:12:59.885Z,14.50
2019-05-30T11:15:41.616Z,14.70
2019-05-30T11:18:29.900Z,15.00
2019-05-30T11:21:18.019Z,14.90
2019-05-30T11:24:06.249Z,15.10
2019-05-30T11:26:55.621Z,14.80
2019-05-30T11:29:45.078Z,15.00
2019-05-30T11:32:32.982Z,15.10
2019-05-30T11:35:20.531Z,15.50
2019-05-30T11:38:08.801Z,15.30
2019-05-30T11:40:57.587Z,15.00
2019-05-30T11:43:45.790Z,15.10
2019-05-30T11:46:33.869Z,15.20
2019-05-30T11:49:21.872Z,15.00
2019-05-30T11:52:10.946Z,15.40
2019-05-30T11:55:00.329Z,15.60
2019-05-30T11:57:49.862Z,15.90
2019-05-30T12:00:37.895Z,16.10
2019-05-30T12:03:29.250Z,15.80
2019-05-30T12:06:15.684Z,16.30
2019-05-30T12:09:08.169Z,16.60
2019-05-30T12:11:57.421Z,16.60
2019-05-30T12:14:45.937Z,16.40
2019-05-30T12:17:33.833Z,16.30
2019-05-30T12:20:22.343Z,16.10
2019-05-30T12:23:10.206Z,16.20
2019-05-30T12:25:58.601Z,16.60
2019-05-30T12:28:46.730Z,16.90
2019-05-30T12:31:34.756Z,16.70
2019-05-30T12:34:22.833Z,16.80
2019-05-30T12:37:11.204Z,16.90
2019-05-30T12:39:59.351Z,16.90
2019-05-30T12:42:48.634Z,16.90
2019-05-30T12:45:36.587Z,17.10
2019-05-30T12:48:27.879Z,17.40
2019-05-30T12:51:16.194Z,17.70
2019-05-30T12:54:05.014Z,17.30
2019-05-30T12:56:54.503Z,17.10
2019-05-30T12:59:45.284Z,17.20
2019-05-30T13:02:33.635Z,17.20
2019-05-30T13:05:23.819Z,16.60
2019-05-30T13:08:21.242Z,16.80
2019-05-30T13:11:12.969Z,17.20
2019-05-30T13:13:58.542Z,17.00
2019-05-30T13:16:47.861Z,17.20
2019-05-30T13:19:35.920Z,17.20
2019-05-30T13:22:24.115Z,17.40
2019-05-30T13:25:14.628Z,17.70
2019-05-30T13:28:06.227Z,18.10
2019-05-30T13:30:52.349Z,18.30
2019-05-30T13:33:40.859Z,18.40
2019-05-30T13:36:31.756Z,18.40
2019-05-30T13:39:22.270Z,18.50
2019-05-30T13:42:14.791Z,18.80
2019-05-30T13:45:04.194Z,18.80
2019-05-30T13:47:52.270Z,18.00
2019-05-30T13:50:40.531Z,17.70
2019-05-30T13:53:28.788Z,17.30
2019-05-30T13:56:16.958Z,17.20
2019-05-30T13:59:05.987Z,16.90
2019-05-30T14:01:56.564Z,17.10
2019-05-30T14:04:44.742Z,17.10
2019-05-30T14:07:32.953Z,16.80
2019-05-30T14:10:21.200Z,16.90
2019-05-30T14:13:09.488Z,17.50
2019-05-30T14:15:57.621Z,17.90
2019-05-30T14:18:46.036Z,18.60
2019-05-30T14:21:34.044Z,18.50
2019-05-30T14:24:22.250Z,18.60
2019-05-30T14:27:11.630Z,18.30
2019-05-30T14:29:59.752Z,18.20
2019-05-30T14:32:51.017Z,18.10
2019-05-30T14:35:41.350Z,18.50
2019-05-30T14:38:31.272Z,18.60
2019-05-30T14:41:19.493Z,18.30
2019-05-30T14:44:10.539Z,18.50
2019-05-30T14:46:58.416Z,18.60
2019-05-30T14:49:46.458Z,18.40
2019-05-30T14:52:35.091Z,18.50
2019-05-30T14:55:23.521Z,18.50
2019-05-30T14:58:11.420Z,18.90
2019-05-30T15:00:59.684Z,19.10
2019-05-30T15:03:47.509Z,18.80
2019-05-30T15:06:35.340Z,18.70
2019-05-30T15:09:26.058Z,18.30
2019-05-30T15:12:13.023Z,18.50
2019-05-30T15:15:00.931Z,19.00
2019-05-30T15:17:49.088Z,19.20
2019-05-30T15:20:37.424Z,19.80
2019-05-30T15:23:25.441Z,19.80
2019-05-30T15:26:14.225Z,19.90
2019-05-30T15:29:03.480Z,18.90
2019-05-30T15:31:51.425Z,18.90
2019-05-30T15:34:39.718Z,19.00
2019-05-30T15:37:27.816Z,18.60
2019-05-30T15:40:17.076Z,17.90
2019-05-30T15:43:07.313Z,17.70
2019-05-30T15:45:55.257Z,17.30
2019-05-30T15:48:43.172Z,17.40
2019-05-30T15:51:31.201Z,17.40
2019-05-30T15:54:19.720Z,16.90
2019-05-30T15:57:09.123Z,16.70
2019-05-30T15:59:57.281Z,16.80
2019-05-30T16:02:45.345Z,16.90
2019-05-30T16:05:33.470Z,17.30
2019-05-30T16:08:21.203Z,18.20
2019-05-30T16:11:10.584Z,18.30
2019-05-30T16:13:58.791Z,19.10
2019-05-30T16:16:50.569Z,20.50
2019-05-30T16:19:38.809Z,21.70
2019-05-30T16:22:27.308Z,21.40
2019-05-30T16:25:18.044Z,19.50
2019-05-30T16:28:06.359Z,19.40
2019-05-30T16:30:56.721Z,18.60
2019-05-30T16:33:47.930Z,18.10
2019-05-30T16:36:37.098Z,18.00
2019-05-30T16:39:25.037Z,17.80
2019-05-30T16:42:14.405Z,18.60
2019-05-30T16:45:03.340Z,18.90
2019-05-30T16:47:55.589Z,18.90
2019-05-30T16:50:45.786Z,19.30
2019-05-30T16:53:35.298Z,19.50
2019-05-30T16:56:32.893Z,19.90
2019-05-30T16:59:21.120Z,19.90
2019-05-30T17:02:16.984Z,19.60
2019-05-30T17:05:06.064Z,19.10
2019-05-30T17:07:54.411Z,18.70
2019-05-30T17:10:44.836Z,18.50
2019-05-30T17:13:33.015Z,18.40
2019-05-30T17:16:26.154Z,18.40
2019-05-30T17:19:18.882Z,18.40
2019-05-30T17:22:07.037Z,18.40
2019-05-30T17:24:56.319Z,17.80
2019-05-30T17:27:46.491Z,17.80
2019-05-30T17:30:36.766Z,18.80
2019-05-30T17:33:28.180Z,19.50
2019-05-30T17:36:24.261Z,20.50
2019-05-30T17:39:15.387Z,20.10
2019-05-30T17:42:03.853Z,20.40
2019-05-30T17:44:52.339Z,21.10
2019-05-30T17:47:58.094Z,20.80
2019-05-30T17:50:38.974Z,19.50
2019-05-30T17:53:27.982Z,19.20
2019-05-30T17:56:28.200Z,19.00
2019-05-30T17:59:20.641Z,17.90
2019-05-30T18:02:09.136Z,17.90
2019-05-30T18:04:58.966Z,17.50
2019-05-30T18:07:46.853Z,17.20
2019-05-30T18:10:52.966Z,16.90
2019-05-30T18:13:31.265Z,16.90
2019-05-30T18:16:19.203Z,16.80
2019-05-30T18:19:07.544Z,16.50
2019-05-30T18:21:59.083Z,16.50
2019-05-30T18:24:47.370Z,16.60
2019-05-30T18:27:35.618Z,16.50
2019-05-30T18:30:28.047Z,16.20
2019-05-30T18:33:16.211Z,15.90
